createdAt,value
2023-03-05T00:00:49.836Z,1.70
2023-03-05T00:01:49.840Z,2.50
2023-03-05T00:02:49.932Z,1.90
2023-03-05T00:03:49.873Z,2.20
2023-03-05T00:04:49.831Z,2.00
2023-03-05T00:05:49.778Z,1.90
2023-03-05T00:06:49.806Z,2.20
2023-03-05T00:07:49.781Z,1.50
2023-03-05T00:08:49.747Z,1.80
2023-03-05T00:09:49.750Z,2.20
2023-03-05T00:10:49.748Z,1.70
2023-03-05T00:11:49.709Z,2.10
2023-03-05T00:12:49.701Z,1.90
2023-03-05T00:13:49.693Z,1.80
2023-03-05T00:14:49.686Z,1.80
2023-03-05T00:15:49.762Z,1.40
2023-03-05T00:16:49.670Z,1.80
2023-03-05T00:17:49.637Z,1.50
2023-03-05T00:18:49.653Z,1.80
2023-03-05T00:19:49.645Z,1.30
2023-03-05T00:20:49.617Z,1.50
2023-03-05T00:21:49.603Z,1.40
2023-03-05T00:22:49.584Z,1.80
2023-03-05T00:23:49.591Z,1.70
2023-03-05T00:24:49.564Z,1.50
2023-03-05T00:25:49.551Z,1.30
2023-03-05T00:26:49.562Z,1.70
2023-03-05T00:27:49.532Z,1.90
2023-03-05T00:28:49.520Z,1.50
2023-03-05T00:29:49.512Z,1.60
2023-03-05T00:30:49.602Z,1.60
2023-03-05T00:31:49.493Z,1.50
2023-03-05T00:32:49.502Z,1.60
2023-03-05T00:33:49.467Z,1.50
2023-03-05T00:34:49.490Z,1.70
2023-03-05T00:35:49.518Z,1.80
2023-03-05T00:36:49.442Z,1.50
2023-03-05T00:37:49.420Z,1.60
2023-03-05T00:38:49.412Z,1.70
2023-03-05T00:39:49.400Z,1.40
2023-03-05T00:40:49.414Z,1.80
2023-03-05T00:41:49.406Z,2.10
2023-03-05T00:42:49.368Z,1.90
2023-03-05T00:43:49.386Z,1.70
2023-03-05T00:44:49.361Z,1.60
2023-03-05T00:45:49.329Z,2.10
2023-03-05T00:46:49.397Z,1.70
2023-03-05T00:47:49.342Z,1.30
2023-03-05T00:48:49.347Z,1.80
2023-03-05T00:49:49.321Z,1.40
2023-03-05T00:50:49.293Z,1.90
2023-03-05T00:51:49.318Z,1.70
2023-03-05T00:52:49.265Z,1.80
2023-03-05T00:53:49.284Z,1.60
2023-03-05T00:54:49.236Z,1.70
2023-03-05T00:55:49.238Z,1.50
2023-03-05T00:56:49.227Z,1.90
2023-03-05T00:57:49.244Z,2.00
2023-03-05T00:58:49.194Z,1.80
2023-03-05T00:59:49.198Z,2.00
2023-03-05T01:00:49.169Z,1.90
2023-03-05T01:01:49.202Z,2.10
2023-03-05T01:02:49.202Z,2.00
2023-03-05T01:03:49.151Z,2.60
2023-03-05T01:04:49.148Z,2.10
2023-03-05T01:05:49.133Z,2.40
2023-03-05T01:06:49.136Z,2.40
2023-03-05T01:07:49.085Z,3.00
2023-03-05T01:08:49.065Z,3.00
2023-03-05T01:09:49.051Z,3.00
2023-03-05T01:10:49.074Z,2.90
2023-03-05T01:11:49.029Z,2.90
2023-03-05T01:12:49.018Z,3.50
2023-03-05T01:13:49.012Z,3.30
2023-03-05T01:14:48.999Z,3.50
2023-03-05T01:15:49.097Z,3.10
2023-03-05T01:16:48.979Z,3.10
2023-03-05T01:17:49.888Z,2.70
2023-03-05T01:18:48.985Z,3.30
2023-03-05T01:19:48.934Z,3.10
2023-03-05T01:20:48.924Z,3.00
2023-03-05T01:21:48.945Z,3.00
2023-03-05T01:22:48.924Z,3.00
2023-03-05T01:23:48.910Z,3.40
2023-03-05T01:24:48.870Z,3.00
2023-03-05T01:25:48.874Z,3.60
2023-03-05T01:26:48.866Z,2.90
2023-03-05T01:27:48.856Z,2.90
2023-03-05T01:28:48.879Z,3.20
2023-03-05T01:29:48.828Z,3.20
2023-03-05T01:30:48.828Z,2.90
2023-03-05T01:31:48.856Z,3.30
2023-03-05T01:32:48.787Z,3.00
2023-03-05T01:33:48.801Z,2.90
2023-03-05T01:34:48.797Z,3.50
2023-03-05T01:35:48.798Z,3.20
2023-03-05T01:36:48.775Z,3.10
2023-03-05T01:37:48.732Z,3.30
2023-03-05T01:38:48.743Z,2.80
2023-03-05T01:39:48.759Z,2.60
2023-03-05T01:40:48.721Z,3.20
2023-03-05T01:41:48.706Z,2.60
2023-03-05T01:42:48.669Z,2.80
2023-03-05T01:43:48.662Z,2.70
2023-03-05T01:44:48.679Z,2.40
2023-03-05T01:45:48.684Z,2.20
2023-03-05T01:46:48.650Z,2.50
2023-03-05T01:47:48.617Z,2.30
2023-03-05T01:48:48.650Z,2.40
2023-03-05T01:49:48.618Z,2.10
2023-03-05T01:50:48.593Z,2.30
2023-03-05T01:51:48.583Z,2.40
2023-03-05T01:52:48.573Z,1.70
2023-03-05T01:53:48.576Z,2.20
2023-03-05T01:54:48.584Z,1.70
2023-03-05T01:55:48.691Z,2.00
2023-03-05T01:56:48.556Z,1.90
2023-03-05T01:57:48.506Z,1.90
2023-03-05T01:58:48.694Z,2.00
2023-03-05T01:59:48.507Z,1.90
2023-03-05T02:00:48.609Z,2.20
2023-03-05T02:01:48.481Z,2.40
2023-03-05T02:02:48.455Z,2.40
2023-03-05T02:03:48.538Z,2.30
2023-03-05T02:04:48.469Z,2.50
2023-03-05T02:05:48.464Z,2.80
2023-03-05T02:06:48.411Z,2.50
2023-03-05T02:07:48.405Z,2.80
2023-03-05T02:08:48.393Z,2.90
2023-03-05T02:09:48.395Z,3.10
2023-03-05T02:10:48.386Z,3.20
2023-03-05T02:11:48.451Z,3.40
2023-03-05T02:12:48.344Z,3.20
2023-03-05T02:13:48.344Z,3.40
2023-03-05T02:14:48.381Z,3.20
2023-03-05T02:15:48.325Z,3.70
2023-03-05T02:16:48.355Z,3.50
2023-03-05T02:17:48.299Z,3.70
2023-03-05T02:18:48.276Z,4.20
2023-03-05T02:19:48.299Z,3.20
2023-03-05T02:20:48.283Z,3.40
2023-03-05T02:21:48.282Z,3.70
2023-03-05T02:22:48.240Z,3.70
2023-03-05T02:23:48.236Z,3.60
2023-03-05T02:24:48.221Z,3.40
2023-03-05T02:25:48.203Z,3.60
2023-03-05T02:26:48.237Z,4.40
2023-03-05T02:27:48.203Z,3.60
2023-03-05T02:28:48.166Z,4.00
2023-03-05T02:29:48.169Z,4.10
2023-03-05T02:30:48.173Z,4.90
2023-03-05T02:31:48.168Z,4.40
2023-03-05T02:32:48.312Z,4.50
2023-03-05T02:33:48.145Z,4.10
2023-03-05T02:34:48.120Z,4.60
2023-03-05T02:35:48.190Z,4.20
2023-03-05T02:36:48.130Z,4.10
2023-03-05T02:37:48.074Z,4.50
2023-03-05T02:38:48.066Z,4.60
2023-03-05T02:39:48.052Z,4.30
2023-03-05T02:40:48.036Z,4.20
2023-03-05T02:41:48.066Z,4.50
2023-03-05T02:42:48.066Z,4.20
2023-03-05T02:43:48.011Z,4.40
2023-03-05T02:44:48.003Z,4.50
2023-03-05T02:45:48.090Z,4.20
2023-03-05T02:46:47.977Z,4.60
2023-03-05T02:47:47.985Z,4.20
2023-03-05T02:48:47.974Z,3.90
2023-03-05T02:49:47.962Z,4.40
2023-03-05T02:50:47.958Z,4.00
2023-03-05T02:51:47.928Z,4.40
2023-03-05T02:52:47.906Z,3.60
2023-03-05T02:53:47.907Z,3.90
2023-03-05T02:54:47.894Z,4.40
2023-03-05T02:55:47.891Z,3.60
2023-03-05T02:56:47.898Z,3.70
2023-03-05T02:57:47.871Z,3.50
2023-03-05T02:58:47.860Z,3.50
2023-03-05T02:59:47.888Z,3.40
2023-03-05T03:00:47.832Z,3.50
2023-03-05T03:01:47.800Z,3.20
2023-03-05T03:02:47.798Z,3.20
2023-03-05T03:03:47.791Z,3.20
2023-03-05T03:04:47.807Z,2.90
2023-03-05T03:05:47.757Z,2.90
2023-03-05T03:06:47.760Z,2.80
2023-03-05T03:07:47.752Z,2.80
2023-03-05T03:08:47.724Z,2.70
2023-03-05T03:09:47.738Z,2.80
2023-03-05T03:10:47.715Z,3.10
2023-03-05T03:11:47.693Z,2.90
2023-03-05T03:12:47.685Z,3.20
2023-03-05T03:13:47.672Z,3.00
2023-03-05T03:14:47.750Z,2.80
2023-03-05T03:15:47.654Z,3.00
2023-03-05T03:16:47.706Z,3.00
2023-03-05T03:17:47.684Z,3.10
2023-03-05T03:18:47.745Z,3.30
2023-03-05T03:19:47.604Z,3.00
2023-03-05T03:20:47.637Z,3.30
2023-03-05T03:21:47.588Z,3.80
2023-03-05T03:22:47.606Z,3.10
2023-03-05T03:23:47.567Z,3.30
2023-03-05T03:24:47.569Z,3.00
2023-03-05T03:25:47.542Z,3.10
2023-03-05T03:26:47.535Z,3.40
2023-03-05T03:27:47.557Z,3.40
2023-03-05T03:28:47.511Z,2.90
2023-03-05T03:29:47.516Z,3.60
2023-03-05T03:30:47.543Z,3.30
2023-03-05T03:31:47.478Z,3.10
2023-03-05T03:32:47.498Z,3.20
2023-03-05T03:33:47.471Z,3.30
2023-03-05T03:34:47.453Z,3.50
2023-03-05T03:35:47.730Z,3.20
2023-03-05T03:36:47.428Z,3.30
2023-03-05T03:37:47.411Z,3.30
2023-03-05T03:38:47.406Z,3.30
2023-03-05T03:39:47.399Z,3.20
2023-03-05T03:40:47.421Z,3.00
2023-03-05T03:41:47.394Z,3.60
2023-03-05T03:42:47.359Z,3.40
2023-03-05T03:43:47.351Z,3.30
2023-03-05T03:44:47.344Z,3.10
2023-03-05T03:45:47.401Z,3.20
2023-03-05T03:46:47.368Z,3.50
2023-03-05T03:47:47.323Z,3.30
2023-03-05T03:48:47.334Z,3.50
2023-03-05T03:49:47.295Z,4.00
2023-03-05T03:50:47.265Z,3.60
2023-03-05T03:51:47.288Z,3.70
2023-03-05T03:52:47.272Z,3.60
2023-03-05T03:53:47.277Z,3.40
2023-03-05T03:54:47.226Z,3.80
2023-03-05T03:55:47.235Z,3.70
2023-03-05T03:56:47.201Z,3.50
2023-03-05T03:57:47.227Z,3.90
2023-03-05T03:58:47.189Z,3.90
2023-03-05T03:59:47.168Z,4.10
2023-03-05T04:00:47.157Z,4.10
2023-03-05T04:01:47.180Z,3.80
2023-03-05T04:02:47.186Z,4.00
2023-03-05T04:03:47.169Z,4.10
2023-03-05T04:04:47.115Z,4.20
2023-03-05T04:05:47.108Z,4.20
2023-03-05T04:06:47.103Z,3.90
2023-03-05T04:07:47.105Z,3.80
2023-03-05T04:08:47.114Z,4.10
2023-03-05T04:09:47.062Z,3.90
2023-03-05T04:10:47.053Z,3.80
2023-03-05T04:11:47.063Z,4.00
2023-03-05T04:12:47.061Z,3.80
2023-03-05T04:13:47.041Z,4.00
2023-03-05T04:14:47.057Z,3.60
2023-03-05T04:15:47.028Z,4.00
2023-03-05T04:16:46.987Z,4.40
2023-03-05T04:17:46.973Z,4.40
2023-03-05T04:18:46.996Z,4.00
2023-03-05T04:19:46.974Z,3.90
2023-03-05T04:20:46.959Z,4.30
2023-03-05T04:21:46.936Z,4.10
2023-03-05T04:22:46.919Z,4.00
2023-03-05T04:23:46.931Z,3.30
2023-03-05T04:24:46.941Z,4.00
2023-03-05T04:25:46.883Z,3.80
2023-03-05T04:26:46.881Z,3.60
2023-03-05T04:27:46.884Z,3.90
2023-03-05T04:28:46.878Z,3.80
2023-03-05T04:29:46.867Z,4.00
2023-03-05T04:30:46.924Z,3.80
2023-03-05T04:31:46.828Z,3.80
2023-03-05T04:32:46.809Z,3.80
2023-03-05T04:33:46.815Z,3.50
2023-03-05T04:34:46.851Z,3.60
2023-03-05T04:35:46.853Z,4.30
2023-03-05T04:36:46.790Z,3.50
2023-03-05T04:37:46.780Z,3.80
2023-03-05T04:38:46.770Z,4.20
2023-03-05T04:39:46.787Z,3.50
2023-03-05T04:40:46.739Z,3.70
2023-03-05T04:41:46.814Z,3.70
2023-03-05T04:42:46.690Z,3.40
2023-03-05T04:43:46.696Z,3.80
2023-03-05T04:44:46.752Z,3.60
2023-03-05T04:45:46.660Z,3.80
2023-03-05T04:46:46.736Z,4.00
2023-03-05T04:47:46.637Z,3.80
2023-03-05T04:48:46.625Z,3.60
2023-03-05T04:49:46.622Z,4.20
2023-03-05T04:50:46.654Z,4.10
2023-03-05T04:51:46.625Z,3.80
2023-03-05T04:52:46.585Z,3.80
2023-03-05T04:53:46.586Z,3.90
2023-03-05T04:54:46.568Z,4.20
2023-03-05T04:55:46.561Z,4.10
2023-03-05T04:56:46.569Z,4.20
2023-03-05T04:57:46.529Z,4.20
2023-03-05T04:58:46.511Z,4.00
2023-03-05T04:59:46.506Z,4.20
2023-03-05T05:00:46.504Z,4.10
2023-03-05T05:01:46.530Z,3.90
2023-03-05T05:02:46.586Z,4.00
2023-03-05T05:03:46.466Z,4.30
2023-03-05T05:04:46.468Z,4.20
2023-03-05T05:05:46.439Z,4.10
2023-03-05T05:06:46.473Z,4.40
2023-03-05T05:07:46.412Z,4.10
2023-03-05T05:08:46.420Z,4.10
2023-03-05T05:09:46.387Z,4.20
2023-03-05T05:10:46.389Z,4.60
2023-03-05T05:11:46.369Z,4.80
2023-03-05T05:12:46.380Z,4.30
2023-03-05T05:13:46.353Z,4.10
2023-03-05T05:14:46.384Z,4.20
2023-03-05T05:15:46.329Z,4.20
2023-03-05T05:16:46.330Z,4.60
2023-03-05T05:17:46.306Z,4.10
2023-03-05T05:18:46.330Z,4.10
2023-03-05T05:19:46.315Z,4.40
2023-03-05T05:20:46.270Z,4.40
2023-03-05T05:21:46.269Z,4.30
2023-03-05T05:22:46.265Z,3.80
2023-03-05T05:23:46.256Z,4.80
2023-03-05T05:24:46.226Z,4.50
2023-03-05T05:25:46.221Z,4.00
2023-03-05T05:26:46.266Z,4.50
2023-03-05T05:27:46.201Z,4.40
2023-03-05T05:28:46.186Z,4.60
2023-03-05T05:29:46.171Z,4.40
2023-03-05T05:30:46.157Z,4.50
2023-03-05T05:31:46.282Z,4.20
2023-03-05T05:32:46.183Z,4.50
2023-03-05T05:33:48.111Z,4.50
2023-03-05T05:34:46.114Z,4.30
2023-03-05T05:35:46.137Z,4.20
2023-03-05T05:36:46.121Z,4.50
2023-03-05T05:37:46.120Z,5.10
2023-03-05T05:38:46.112Z,4.60
2023-03-05T05:39:46.065Z,4.30
2023-03-05T05:40:46.060Z,4.20
2023-03-05T05:41:46.155Z,4.40
2023-03-05T05:42:46.062Z,4.50
2023-03-05T05:43:46.028Z,4.80
2023-03-05T05:44:46.016Z,4.20
2023-03-05T05:45:46.202Z,4.60
2023-03-05T05:46:46.057Z,4.50
2023-03-05T05:47:45.979Z,4.40
2023-03-05T05:48:46.024Z,4.20
2023-03-05T05:49:45.970Z,4.70
2023-03-05T05:50:45.974Z,4.80
2023-03-05T05:51:45.945Z,4.80
2023-03-05T05:52:45.959Z,4.40
2023-03-05T05:53:45.920Z,4.90
2023-03-05T05:54:45.953Z,4.60
2023-03-05T05:55:45.918Z,4.80
2023-03-05T05:56:45.904Z,4.70
2023-03-05T05:57:45.872Z,4.40
2023-03-05T05:58:45.864Z,5.00
2023-03-05T05:59:45.850Z,4.60
2023-03-05T06:00:45.857Z,5.00
2023-03-05T06:01:45.896Z,4.50
2023-03-05T06:02:45.884Z,4.80
2023-03-05T06:03:45.807Z,4.40
2023-03-05T06:04:45.791Z,4.50
2023-03-05T06:05:45.809Z,4.50
2023-03-05T06:06:45.800Z,4.00
2023-03-05T06:07:45.773Z,4.00
2023-03-05T06:08:45.746Z,4.30
2023-03-05T06:09:45.751Z,4.50
2023-03-05T06:10:45.769Z,4.60
2023-03-05T06:11:45.752Z,4.20
2023-03-05T06:12:45.703Z,4.00
2023-03-05T06:13:45.693Z,4.20
2023-03-05T06:14:45.713Z,4.30
2023-03-05T06:15:45.680Z,4.20
2023-03-05T06:16:45.717Z,4.60
2023-03-05T06:17:45.654Z,4.20
2023-03-05T06:18:45.638Z,4.20
2023-03-05T06:19:45.647Z,4.20
2023-03-05T06:20:45.616Z,3.90
2023-03-05T06:21:45.624Z,4.40
2023-03-05T06:22:45.593Z,4.20
2023-03-05T06:23:45.582Z,4.20
2023-03-05T06:24:45.580Z,4.20
2023-03-05T06:25:45.561Z,4.30
2023-03-05T06:26:45.583Z,4.00
2023-03-05T06:27:45.569Z,4.40
2023-03-05T06:28:45.531Z,4.00
2023-03-05T06:29:45.517Z,4.50
2023-03-05T06:30:45.574Z,4.60
2023-03-05T06:31:45.504Z,3.90
2023-03-05T06:32:45.516Z,4.30
2023-03-05T06:33:45.476Z,3.80
2023-03-05T06:34:45.467Z,3.60
2023-03-05T06:35:45.527Z,3.70
2023-03-05T06:36:45.463Z,4.30
2023-03-05T06:37:45.455Z,3.60
2023-03-05T06:38:45.428Z,3.80
2023-03-05T06:39:45.423Z,3.90
2023-03-05T06:40:45.395Z,4.00
2023-03-05T06:41:45.388Z,3.70
2023-03-05T06:42:45.393Z,4.30
2023-03-05T06:43:45.386Z,3.90
2023-03-05T06:44:47.179Z,4.10
2023-03-05T06:45:45.400Z,4.20
2023-03-05T06:46:45.369Z,4.10
2023-03-05T06:47:45.342Z,3.80
2023-03-05T06:48:45.331Z,3.80
2023-03-05T06:49:45.330Z,3.50
2023-03-05T06:50:45.306Z,3.80
2023-03-05T06:51:45.309Z,3.60
2023-03-05T06:52:45.323Z,3.60
2023-03-05T06:53:46.765Z,3.60
2023-03-05T06:54:45.238Z,3.70
2023-03-05T06:55:45.282Z,3.70
2023-03-05T06:56:45.246Z,3.60
2023-03-05T06:57:45.309Z,3.90
2023-03-05T06:58:45.219Z,3.80
2023-03-05T06:59:45.192Z,4.20
2023-03-05T07:00:45.184Z,4.00
2023-03-05T07:01:45.192Z,4.10
2023-03-05T07:02:45.185Z,3.70
2023-03-05T07:03:45.161Z,3.80
2023-03-05T07:04:45.146Z,3.80
2023-03-05T07:05:45.151Z,3.80
2023-03-05T07:06:45.146Z,3.70
2023-03-05T07:07:45.106Z,3.70
2023-03-05T07:08:45.083Z,3.20
2023-03-05T07:09:45.090Z,4.00
2023-03-05T07:10:45.081Z,3.60
2023-03-05T07:11:45.095Z,4.10
2023-03-05T07:12:45.062Z,3.80
2023-03-05T07:13:45.032Z,3.70
2023-03-05T07:14:45.063Z,3.80
2023-03-05T07:15:45.035Z,3.80
2023-03-05T07:16:45.021Z,3.50
2023-03-05T07:17:44.984Z,4.20
2023-03-05T07:18:44.999Z,3.60
2023-03-05T07:19:44.996Z,4.10
2023-03-05T07:20:44.947Z,4.10
2023-03-05T07:21:44.957Z,3.30
2023-03-05T07:22:44.926Z,3.80
2023-03-05T07:23:44.937Z,3.30
2023-03-05T07:24:44.943Z,3.70
2023-03-05T07:25:44.901Z,3.60
2023-03-05T07:26:46.121Z,3.70
2023-03-05T07:27:44.885Z,3.60
2023-03-05T07:28:44.864Z,4.00
2023-03-05T07:29:44.853Z,4.00
2023-03-05T07:30:44.906Z,3.80
2023-03-05T07:31:44.927Z,3.70
2023-03-05T07:32:44.819Z,3.60
2023-03-05T07:33:44.809Z,3.50
2023-03-05T07:34:44.826Z,3.80
2023-03-05T07:35:44.863Z,3.60
2023-03-05T07:36:44.778Z,3.50
2023-03-05T07:37:44.804Z,3.30
2023-03-05T07:38:44.801Z,3.50
2023-03-05T07:39:47.120Z,3.40
2023-03-05T07:40:44.736Z,3.50
2023-03-05T07:41:44.741Z,3.30
2023-03-05T07:42:44.853Z,3.70
2023-03-05T07:43:44.722Z,3.80
2023-03-05T07:44:44.701Z,3.00
2023-03-05T07:45:44.886Z,3.40
2023-03-05T07:46:44.691Z,3.40
2023-03-05T07:47:44.673Z,3.30
2023-03-05T07:48:44.667Z,3.70
2023-03-05T07:49:44.632Z,3.20
2023-03-05T07:50:44.643Z,3.50
2023-03-05T07:51:44.633Z,3.10
2023-03-05T07:52:44.625Z,3.40
2023-03-05T07:53:44.591Z,3.30
2023-03-05T07:54:44.589Z,3.40
2023-03-05T07:55:44.643Z,3.10
2023-03-05T07:56:44.559Z,3.50
2023-03-05T07:57:44.586Z,3.10
2023-03-05T07:58:45.482Z,3.10
2023-03-05T07:59:44.522Z,3.40
2023-03-05T08:00:44.570Z,3.30
2023-03-05T08:01:44.528Z,3.10
2023-03-05T08:02:44.554Z,3.30
2023-03-05T08:03:44.638Z,3.50
2023-03-05T08:04:44.484Z,3.00
2023-03-05T08:05:44.479Z,3.00
2023-03-05T08:06:44.481Z,3.10
2023-03-05T08:07:44.584Z,2.70
2023-03-05T08:08:44.469Z,2.80
2023-03-05T08:09:44.449Z,3.00
2023-03-05T08:10:44.451Z,2.40
2023-03-05T08:11:44.408Z,2.70
2023-03-05T08:12:44.380Z,3.00
2023-03-05T08:13:44.394Z,2.80
2023-03-05T08:14:44.364Z,3.10
2023-03-05T08:15:44.424Z,3.00
2023-03-05T08:16:46.339Z,3.30
2023-03-05T08:17:44.346Z,3.00
2023-03-05T08:18:44.342Z,2.60
2023-03-05T08:19:44.308Z,2.80
2023-03-05T08:20:44.294Z,2.90
2023-03-05T08:21:44.327Z,2.30
2023-03-05T08:22:44.311Z,2.60
2023-03-05T08:23:44.263Z,2.50
2023-03-05T08:24:44.493Z,2.70
2023-03-05T08:25:44.242Z,2.80
2023-03-05T08:26:44.241Z,2.60
2023-03-05T08:27:44.233Z,2.10
2023-03-05T08:28:44.215Z,2.60
2023-03-05T08:29:44.194Z,2.70
2023-03-05T08:30:44.206Z,2.40
2023-03-05T08:31:44.195Z,2.40
2023-03-05T08:32:44.168Z,2.40
2023-03-05T08:33:44.145Z,2.60
2023-03-05T08:34:44.177Z,2.10
2023-03-05T08:35:44.201Z,2.40
2023-03-05T08:36:44.121Z,2.30
2023-03-05T08:37:44.105Z,2.40
2023-03-05T08:38:44.099Z,2.40
2023-03-05T08:39:44.093Z,2.70
2023-03-05T08:40:44.093Z,2.40
2023-03-05T08:41:44.061Z,2.30
2023-03-05T08:42:44.045Z,2.60
2023-03-05T08:43:44.053Z,2.50
2023-03-05T08:44:44.047Z,2.40
2023-03-05T08:45:44.047Z,2.50
2023-03-05T08:46:44.059Z,2.70
2023-03-05T08:47:44.011Z,2.70
2023-03-05T08:48:44.001Z,2.30
2023-03-05T08:49:43.983Z,2.30
2023-03-05T08:50:44.009Z,2.20
2023-03-05T08:51:43.959Z,2.00
2023-03-05T08:52:44.010Z,2.20
2023-03-05T08:53:43.934Z,2.40
2023-03-05T08:54:43.928Z,2.60
2023-03-05T08:55:44.331Z,2.30
2023-03-05T08:56:43.897Z,2.30
2023-03-05T08:57:43.892Z,2.50
2023-03-05T08:58:43.883Z,2.40
2023-03-05T08:59:43.887Z,2.30
2023-03-05T09:00:43.855Z,2.50
2023-03-05T09:01:43.947Z,2.70
2023-03-05T09:02:43.933Z,2.40
2023-03-05T09:03:43.906Z,2.10
2023-03-05T09:04:43.814Z,2.40
2023-03-05T09:05:43.823Z,2.50
2023-03-05T09:06:43.811Z,2.40
2023-03-05T09:07:43.800Z,2.50
2023-03-05T09:08:43.790Z,2.50
2023-03-05T09:09:43.749Z,2.40
2023-03-05T09:10:43.777Z,2.20
2023-03-05T09:11:43.775Z,2.30
2023-03-05T09:12:43.730Z,2.30
2023-03-05T09:13:43.724Z,2.50
2023-03-05T09:14:43.698Z,2.70
2023-03-05T09:15:43.699Z,2.30
2023-03-05T09:16:43.762Z,2.50
2023-03-05T09:17:43.679Z,2.30
2023-03-05T09:18:43.681Z,2.40
2023-03-05T09:19:43.655Z,2.30
2023-03-05T09:20:43.632Z,2.20
2023-03-05T09:21:43.645Z,2.20
2023-03-05T09:22:43.641Z,2.00
2023-03-05T09:23:43.609Z,1.70
2023-03-05T09:24:43.609Z,2.00
2023-03-05T09:25:43.585Z,2.10
2023-03-05T09:26:43.588Z,2.30
2023-03-05T09:27:43.581Z,1.90
2023-03-05T09:28:43.536Z,1.70
2023-03-05T09:29:43.539Z,2.10
2023-03-05T09:30:43.521Z,2.00
2023-03-05T09:31:43.617Z,1.90
2023-03-05T09:32:43.612Z,2.00
2023-03-05T09:33:43.488Z,2.10
2023-03-05T09:34:43.490Z,2.20
2023-03-05T09:35:43.508Z,1.90
2023-03-05T09:36:43.529Z,2.20
2023-03-05T09:37:43.442Z,2.00
2023-03-05T09:38:43.448Z,1.70
2023-03-05T09:39:43.419Z,1.90
2023-03-05T09:40:43.426Z,1.90
2023-03-05T09:41:43.413Z,1.80
2023-03-05T09:42:43.427Z,1.80
2023-03-05T09:43:43.427Z,2.20
2023-03-05T09:44:43.362Z,2.10
2023-03-05T09:45:43.405Z,1.70
2023-03-05T09:46:43.353Z,1.90
2023-03-05T09:47:43.349Z,1.80
2023-03-05T09:48:43.348Z,1.80
2023-03-05T09:49:43.310Z,2.20
2023-03-05T09:50:43.298Z,1.90
2023-03-05T09:51:43.284Z,1.70
2023-03-05T09:52:43.290Z,1.60
2023-03-05T09:53:43.310Z,1.70
2023-03-05T09:54:43.282Z,1.70
2023-03-05T09:55:43.241Z,1.30
2023-03-05T09:56:43.245Z,1.50
2023-03-05T09:57:43.221Z,1.60
2023-03-05T09:58:43.228Z,1.40
2023-03-05T09:59:43.197Z,1.60
2023-03-05T10:00:43.212Z,1.80
2023-03-05T10:01:43.186Z,1.50
2023-03-05T10:02:43.202Z,1.90
2023-03-05T10:03:43.197Z,1.60
2023-03-05T10:04:43.169Z,1.40
2023-03-05T10:05:43.135Z,1.60
2023-03-05T10:06:43.110Z,1.90
2023-03-05T10:07:43.106Z,1.40
2023-03-05T10:08:43.101Z,1.30
2023-03-05T10:09:43.132Z,1.50
2023-03-05T10:10:43.093Z,1.40
2023-03-05T10:11:43.071Z,1.50
2023-03-05T10:12:43.184Z,1.50
2023-03-05T10:13:43.045Z,1.50
2023-03-05T10:14:43.039Z,1.50
2023-03-05T10:15:43.038Z,1.70
2023-03-05T10:16:43.044Z,1.40
2023-03-05T10:17:43.059Z,2.20
2023-03-05T10:18:42.988Z,1.70
2023-03-05T10:19:42.988Z,1.50
2023-03-05T10:20:42.980Z,1.50
2023-03-05T10:21:42.984Z,1.50
2023-03-05T10:22:42.953Z,1.50
2023-03-05T10:23:42.939Z,1.40
2023-03-05T10:24:42.936Z,1.30
2023-03-05T10:25:42.911Z,1.60
2023-03-05T10:26:42.949Z,1.20
2023-03-05T10:27:42.931Z,1.30
2023-03-05T10:28:42.899Z,1.40
2023-03-05T10:29:42.897Z,1.30
2023-03-05T10:30:42.848Z,1.60
2023-03-05T10:31:42.927Z,1.40
2023-03-05T10:32:42.887Z,1.40
2023-03-05T10:33:42.817Z,1.40
2023-03-05T10:34:42.820Z,1.20
2023-03-05T10:35:42.855Z,0.90
2023-03-05T10:36:42.787Z,1.10
2023-03-05T10:37:42.785Z,1.20
2023-03-05T10:38:42.792Z,1.00
2023-03-05T10:39:42.757Z,1.10
2023-03-05T10:40:42.739Z,1.20
2023-03-05T10:41:42.753Z,1.10
2023-03-05T10:42:42.752Z,1.20
2023-03-05T10:43:42.730Z,1.20
2023-03-05T10:44:42.691Z,1.30
2023-03-05T10:45:42.701Z,1.30
2023-03-05T10:46:42.682Z,1.30
2023-03-05T10:47:42.711Z,1.30
2023-03-05T10:48:42.677Z,1.40
2023-03-05T10:49:42.656Z,1.20
2023-03-05T10:50:42.626Z,1.30
2023-03-05T10:51:42.615Z,1.40
2023-03-05T10:52:42.612Z,1.60
2023-03-05T10:53:42.620Z,1.50
2023-03-05T10:54:42.606Z,1.30
2023-03-05T10:55:42.589Z,1.40
2023-03-05T10:56:42.642Z,1.30
2023-03-05T10:57:42.582Z,1.60
2023-03-05T10:58:42.563Z,1.70
2023-03-05T10:59:42.537Z,1.40
2023-03-05T11:00:42.548Z,1.40
2023-03-05T11:01:42.573Z,1.90
2023-03-05T11:02:42.545Z,1.80
2023-03-05T11:03:42.492Z,1.40
2023-03-05T11:04:42.479Z,1.70
2023-03-05T11:05:42.535Z,1.50
2023-03-05T11:06:42.458Z,1.60
2023-03-05T11:07:42.462Z,1.80
2023-03-05T11:08:42.440Z,1.30
2023-03-05T11:09:42.421Z,1.70
2023-03-05T11:10:42.413Z,1.50
2023-03-05T11:11:42.410Z,1.50
2023-03-05T11:12:42.395Z,1.40
2023-03-05T11:13:42.368Z,1.30
2023-03-05T11:14:42.397Z,1.50
2023-03-05T11:15:42.389Z,1.30
2023-03-05T11:16:42.367Z,1.50
2023-03-05T11:17:42.339Z,1.60
2023-03-05T11:18:42.329Z,1.60
2023-03-05T11:19:42.303Z,1.50
2023-03-05T11:20:42.291Z,1.40
2023-03-05T11:21:42.308Z,1.50
2023-03-05T11:22:42.267Z,1.70
2023-03-05T11:23:42.265Z,1.60
2023-03-05T11:24:42.246Z,1.50
2023-03-05T11:25:42.263Z,1.20
2023-03-05T11:26:42.225Z,1.60
2023-03-05T11:27:42.215Z,1.60
2023-03-05T11:28:42.251Z,1.50
2023-03-05T11:29:42.204Z,1.50
2023-03-05T11:30:42.305Z,1.40
2023-03-05T11:31:42.170Z,1.60
2023-03-05T11:32:42.178Z,1.70
2023-03-05T11:33:42.160Z,1.70
2023-03-05T11:34:42.171Z,1.70
2023-03-05T11:35:42.259Z,1.80
2023-03-05T11:36:42.111Z,1.60
2023-03-05T11:37:42.136Z,1.70
2023-03-05T11:38:42.096Z,1.90
2023-03-05T11:39:42.083Z,1.40
2023-03-05T11:40:42.104Z,1.40
2023-03-05T11:41:42.160Z,1.80
2023-03-05T11:42:42.060Z,1.70
2023-03-05T11:43:42.074Z,1.40
2023-03-05T11:44:42.070Z,1.30
2023-03-05T11:45:42.036Z,1.40
2023-03-05T11:46:42.037Z,1.30
2023-03-05T11:47:41.989Z,2.10
2023-03-05T11:48:42.003Z,1.20
2023-03-05T11:49:41.977Z,1.40
2023-03-05T11:50:41.958Z,1.20
2023-03-05T11:51:41.969Z,1.30
2023-03-05T11:52:41.936Z,1.30
2023-03-05T11:53:41.924Z,0.90
2023-03-05T11:54:41.931Z,0.70
2023-03-05T11:55:41.921Z,1.10
2023-03-05T11:56:41.933Z,1.00
2023-03-05T11:57:41.931Z,0.80
2023-03-05T11:58:41.870Z,1.10
2023-03-05T11:59:41.883Z,0.90
2023-03-05T12:00:41.881Z,0.90
2023-03-05T12:01:41.852Z,0.80
2023-03-05T12:02:41.969Z,1.00
2023-03-05T12:03:42.097Z,1.10
2023-03-05T12:04:41.827Z,1.20
2023-03-05T12:05:41.879Z,1.10
2023-03-05T12:06:42.575Z,1.30
2023-03-05T12:07:41.775Z,1.30
2023-03-05T12:08:41.765Z,1.30
2023-03-05T12:09:42.351Z,1.30
2023-03-05T12:10:41.982Z,1.30
2023-03-05T12:11:42.208Z,1.20
2023-03-05T12:12:42.068Z,1.00
2023-03-05T12:13:43.168Z,1.20
2023-03-05T12:14:41.698Z,1.60
2023-03-05T12:15:41.823Z,1.70
2023-03-05T12:16:41.711Z,1.40
2023-03-05T12:17:42.228Z,1.60
2023-03-05T12:18:41.668Z,1.70
2023-03-05T12:19:41.693Z,1.60
2023-03-05T12:20:41.941Z,1.70
2023-03-05T12:21:41.648Z,2.10
2023-03-05T12:22:42.453Z,2.10
2023-03-05T12:23:42.069Z,2.10
2023-03-05T12:24:41.602Z,2.10
2023-03-05T12:25:41.734Z,2.00
2023-03-05T12:26:41.914Z,2.00
2023-03-05T12:27:41.562Z,1.80
2023-03-05T12:28:41.807Z,1.90
2023-03-05T12:29:41.545Z,2.10
2023-03-05T12:30:41.525Z,2.00
2023-03-05T12:31:41.685Z,2.90
2023-03-05T12:32:41.848Z,2.10
2023-03-05T12:33:41.493Z,1.50
2023-03-05T12:34:41.847Z,1.70
2023-03-05T12:35:41.483Z,1.50
2023-03-05T12:36:41.659Z,1.30
2023-03-05T12:37:41.510Z,1.30
2023-03-05T12:38:41.577Z,1.50
2023-03-05T12:39:41.778Z,1.90
2023-03-05T12:40:41.527Z,1.60
2023-03-05T12:41:41.827Z,1.50
2023-03-05T12:42:41.502Z,1.30
2023-03-05T12:43:41.415Z,1.20
2023-03-05T12:44:41.376Z,1.50
2023-03-05T12:45:41.375Z,1.30
2023-03-05T12:46:41.363Z,1.40
2023-03-05T12:47:41.351Z,1.60
2023-03-05T12:48:41.362Z,1.50
2023-03-05T12:49:41.337Z,1.10
2023-03-05T12:50:41.313Z,1.30
2023-03-05T12:51:41.291Z,1.20
2023-03-05T12:52:41.286Z,1.50
2023-03-05T12:53:41.265Z,1.50
2023-03-05T12:54:41.296Z,1.40
2023-03-05T12:55:41.249Z,1.30
2023-03-05T12:56:41.258Z,1.40
2023-03-05T12:57:41.236Z,1.50
2023-03-05T12:58:41.212Z,1.80
2023-03-05T12:59:41.201Z,1.90
2023-03-05T13:00:41.268Z,1.60
2023-03-05T13:01:41.188Z,1.40
2023-03-05T13:02:41.169Z,1.80
2023-03-05T13:03:41.221Z,1.70
2023-03-05T13:04:41.161Z,1.60
2023-03-05T13:05:41.139Z,1.70
2023-03-05T13:06:41.138Z,1.70
2023-03-05T13:07:41.107Z,1.30
2023-03-05T13:08:41.121Z,1.60
2023-03-05T13:09:41.081Z,1.60
2023-03-05T13:10:41.072Z,1.60
2023-03-05T13:11:41.104Z,1.80
2023-03-05T13:12:41.152Z,1.70
2023-03-05T13:13:41.049Z,1.50
2023-03-05T13:14:41.037Z,1.30
2023-03-05T13:15:41.013Z,1.60
2023-03-05T13:16:41.106Z,1.30
2023-03-05T13:17:41.020Z,1.30
2023-03-05T13:18:40.987Z,1.40